createdAt,value
2019-04-21T00:04:43.231Z,57.87
2019-04-21T00:09:55.838Z,58.26
2019-04-21T00:14:45.041Z,59.22
2019-04-21T00:19:33.210Z,58.90
2019-04-21T00:24:43.444Z,59.47
2019-04-21T00:29:49.153Z,60.71
2019-04-21T00:34:30.052Z,61.25
2019-04-21T00:44:35.876Z,61.73
2019-04-21T00:49:47.869Z,62.40
2019-04-21T00:54:50.919Z,61.92
2019-04-21T00:59:46.382Z,62.30
2019-04-21T01:04:53.883Z,62.59
2019-04-21T01:09:37.488Z,62.88
2019-04-21T01:14:50.084Z,63.26
2019-04-21T01:19:42.241Z,63.35
2019-04-21T01:24:30.731Z,63.92
2019-04-21T01:29:45.913Z,64.31
2019-04-21T01:34:46.380Z,64.21
2019-04-21T01:39:51.359Z,64.78
2019-04-21T01:44:58.542Z,65.07
2019-04-21T01:49:34.735Z,64.31
2019-04-21T01:54:40.426Z,64.97
2019-04-21T01:59:35.277Z,65.61
2019-04-21T02:10:00.476Z,65.52
2019-04-21T02:14:46.286Z,66.34
2019-04-21T02:19:31.208Z,66.18
2019-04-21T02:24:42.691Z,65.39
2019-04-21T02:29:41.247Z,66.24
2019-04-21T02:34:57.454Z,66.63
2019-04-21T02:39:49.530Z,67.20
2019-04-21T02:44:51.982Z,66.91
2019-04-21T02:49:56.052Z,67.00
2019-04-21T02:55:03.312Z,68.15
2019-04-21T02:59:54.790Z,67.86
2019-04-21T03:05:02.202Z,68.50
2019-04-21T03:14:56.105Z,68.98
2019-04-21T03:19:51.900Z,69.45
2019-04-21T03:25:04.376Z,69.83
2019-04-21T03:39:45.524Z,69.74
2019-04-21T03:44:37.333Z,69.58
2019-04-21T03:54:46.496Z,69.45
2019-04-21T03:59:40.635Z,70.02
2019-04-21T04:04:35.627Z,70.21
2019-04-21T04:09:45.262Z,69.83
2019-04-21T04:14:40.008Z,69.54
2019-04-21T04:19:44.699Z,69.83
2019-04-21T04:25:03.501Z,70.50
2019-04-21T04:29:31.769Z,69.54
2019-04-21T04:34:41.255Z,70.50
2019-04-21T04:39:45.666Z,70.65
2019-04-21T05:04:37.921Z,71.26
2019-04-21T05:24:18.856Z,70.63
2019-04-21T05:29:10.827Z,70.15
2019-04-21T05:34:18.537Z,70.25
2019-04-21T05:39:14.668Z,69.29
2019-04-21T05:44:21.293Z,68.72
2019-04-21T05:49:20.556Z,69.10
2019-04-21T05:54:24.019Z,69.01
2019-04-21T05:59:12.144Z,68.63
2019-04-21T06:04:34.748Z,68.15
2019-04-21T06:09:19.000Z,68.05
2019-04-21T06:14:16.388Z,67.20
2019-04-21T06:19:12.770Z,67.99
2019-04-21T06:24:18.766Z,66.56
2019-04-21T06:29:14.968Z,64.40
2019-04-21T06:34:16.702Z,64.50
2019-04-21T06:39:17.799Z,63.92
2019-04-21T06:44:18.083Z,63.10
2019-04-21T06:49:08.073Z,63.20
2019-04-21T06:54:32.282Z,61.86
2019-04-21T06:59:09.692Z,60.27
2019-04-21T07:04:18.549Z,61.41
2019-04-21T07:09:20.280Z,60.10
2019-04-21T07:14:25.687Z,60.68
2019-04-21T07:19:21.850Z,61.44
2019-04-21T07:24:14.749Z,61.66
2019-04-21T07:29:15.404Z,59.59
2019-04-21T07:34:17.344Z,58.88
2019-04-21T07:39:06.200Z,55.18
2019-04-21T07:44:00.134Z,55.08
2019-04-21T07:49:11.367Z,56.32
2019-04-21T07:54:14.804Z,56.23
2019-04-21T07:59:02.814Z,56.04
2019-04-21T08:04:16.567Z,54.39
2019-04-21T08:09:07.147Z,50.92
2019-04-21T08:14:06.943Z,49.24
2019-04-21T08:19:12.911Z,46.57
2019-04-21T08:24:07.755Z,46.28
2019-04-21T08:29:20.660Z,47.72
2019-04-21T08:34:14.003Z,48.47
2019-04-21T08:39:08.805Z,49.99
2019-04-21T08:44:05.209Z,50.34
2019-04-21T08:49:00.821Z,50.46
2019-04-21T08:54:13.900Z,50.66
2019-04-21T09:03:58.851Z,50.56
2019-04-21T09:09:03.615Z,50.27
2019-04-21T09:14:01.572Z,50.08
2019-04-21T09:18:54.249Z,52.80
2019-04-21T09:23:55.970Z,50.04
2019-04-21T09:28:52.217Z,49.15
2019-04-21T09:33:46.568Z,49.07
2019-04-21T09:38:42.422Z,48.03
2019-04-21T09:43:45.338Z,47.00
2019-04-21T09:48:51.406Z,45.65
2019-04-21T09:53:43.241Z,43.85
2019-04-21T09:58:44.594Z,45.00
2019-04-21T10:03:44.787Z,41.96
2019-04-21T10:08:39.139Z,40.05
2019-04-21T10:13:36.773Z,38.16
2019-04-21T10:18:35.739Z,38.12
2019-04-21T10:23:31.967Z,39.49
2019-04-21T10:28:28.868Z,36.80
2019-04-21T10:33:26.299Z,35.68
2019-04-21T10:38:30.456Z,35.99
2019-04-21T10:43:24.351Z,35.00
2019-04-21T10:48:21.085Z,34.70
2019-04-21T10:53:17.059Z,34.81
2019-04-21T10:58:14.151Z,34.73
2019-04-21T11:03:10.941Z,34.25
2019-04-21T11:08:20.543Z,34.05
2019-04-21T11:13:08.406Z,34.55
2019-04-21T11:18:04.374Z,34.83
2019-04-21T11:23:01.690Z,35.04
2019-04-21T11:27:58.703Z,35.00
2019-04-21T11:32:55.265Z,34.79
2019-04-21T11:37:53.458Z,35.39
2019-04-21T11:42:51.708Z,34.07
2019-04-21T11:47:48.225Z,34.89
2019-04-21T11:52:45.166Z,35.97
2019-04-21T11:57:44.958Z,34.54
2019-04-21T12:02:41.644Z,34.05
2019-04-21T12:07:38.390Z,33.41
2019-04-21T12:12:33.085Z,30.79
2019-04-21T12:17:28.009Z,32.10
2019-04-21T12:22:28.201Z,34.97
2019-04-21T12:27:20.458Z,34.66
2019-04-21T12:32:15.950Z,33.80
2019-04-21T12:37:11.002Z,33.60
2019-04-21T12:42:06.803Z,32.34
2019-04-21T12:47:03.707Z,31.59
2019-04-21T12:52:01.832Z,31.22
2019-04-21T12:56:59.215Z,32.17
2019-04-21T13:01:54.859Z,34.18
2019-04-21T13:06:50.173Z,35.14
2019-04-21T13:11:47.204Z,35.32
2019-04-21T13:16:43.446Z,34.86
2019-04-21T13:21:40.328Z,35.44
2019-04-21T13:26:43.918Z,34.95
2019-04-21T13:31:38.328Z,33.80
2019-04-21T13:36:33.795Z,32.82
2019-04-21T13:41:42.984Z,33.31
2019-04-21T13:46:31.028Z,32.34
2019-04-21T13:51:27.004Z,32.15
2019-04-21T13:56:22.961Z,32.33
2019-04-21T14:01:19.095Z,33.22
2019-04-21T14:06:16.233Z,33.70
2019-04-21T14:11:13.290Z,31.48
2019-04-21T14:16:09.694Z,31.96
2019-04-21T14:21:07.251Z,31.76
2019-04-21T14:26:03.846Z,30.41
2019-04-21T14:31:02.127Z,30.61
2019-04-21T14:35:58.909Z,32.07
2019-04-21T14:40:54.790Z,32.07
2019-04-21T14:45:50.653Z,32.17
2019-04-21T14:50:48.368Z,29.46
2019-04-21T14:55:45.478Z,28.11
2019-04-21T15:00:41.874Z,28.78
2019-04-21T15:05:37.698Z,27.82
2019-04-21T15:10:35.155Z,28.69
2019-04-21T15:15:31.787Z,27.91
2019-04-21T15:20:28.707Z,26.65
2019-04-21T15:25:24.079Z,27.23
2019-04-21T15:30:21.000Z,28.67
2019-04-21T15:35:17.382Z,28.67
2019-04-21T15:40:21.776Z,29.25
2019-04-21T15:45:13.046Z,28.58
2019-04-21T15:50:14.318Z,30.03
2019-04-21T15:55:08.571Z,29.25
2019-04-21T16:00:04.721Z,31.28
2019-04-21T16:05:01.589Z,31.18
2019-04-21T16:09:59.759Z,30.22
2019-04-21T16:14:54.878Z,30.61
2019-04-21T16:19:52.158Z,30.03
2019-04-21T16:24:48.769Z,29.93
2019-04-21T16:29:45.744Z,30.61
2019-04-21T16:34:49.249Z,30.61
2019-04-21T16:39:41.313Z,31.09
2019-04-21T16:44:37.285Z,31.09
2019-04-21T16:49:33.720Z,30.59
2019-04-21T16:54:31.544Z,30.79
2019-04-21T16:59:28.730Z,32.91
2019-04-21T17:04:24.512Z,34.84
2019-04-21T17:09:20.919Z,37.83
2019-04-21T17:14:33.151Z,38.02
2019-04-21T17:19:24.119Z,38.21
2019-04-21T17:24:17.301Z,38.51
2019-04-21T17:29:12.599Z,38.10
2019-04-21T17:34:13.757Z,38.78
2019-04-21T17:39:08.988Z,39.54
2019-04-21T17:44:04.817Z,39.91
2019-04-21T17:49:01.302Z,40.20
2019-04-21T17:54:00.715Z,40.30
2019-04-21T17:59:17.686Z,41.34
2019-04-21T18:04:15.481Z,41.44
2019-04-21T18:09:21.947Z,41.92
2019-04-21T18:13:55.589Z,42.79
2019-04-21T18:18:51.016Z,43.34
2019-04-21T18:23:54.759Z,43.92
2019-04-21T18:28:55.306Z,45.15
2019-04-21T18:33:59.024Z,45.73
2019-04-21T18:39:14.230Z,46.40
2019-04-21T18:44:23.663Z,47.34
2019-04-21T18:48:53.844Z,47.63
2019-04-21T18:54:07.044Z,48.40
2019-04-21T18:58:50.932Z,49.24
2019-04-21T19:03:50.771Z,49.82
2019-04-21T19:09:03.847Z,49.82
2019-04-21T19:14:20.913Z,49.69
2019-04-21T19:19:34.142Z,50.46
2019-04-21T19:24:18.617Z,50.66
2019-04-21T19:29:16.385Z,51.31
2019-04-21T19:33:55.383Z,52.36
2019-04-21T19:38:58.230Z,52.55
2019-04-21T19:44:03.561Z,52.94
2019-04-21T19:49:10.114Z,53.39
2019-04-21T19:53:55.024Z,53.97
2019-04-21T19:58:46.052Z,54.16
2019-04-21T20:03:43.141Z,54.90
2019-04-21T20:09:00.708Z,55.57
2019-04-21T20:14:26.341Z,55.96
2019-04-21T20:18:51.459Z,56.05
2019-04-21T20:23:43.231Z,56.82
2019-04-21T20:28:48.946Z,57.21
2019-04-21T20:33:59.234Z,58.04
2019-04-21T20:38:49.069Z,58.14
2019-04-21T20:44:01.022Z,58.33
2019-04-21T20:49:00.086Z,61.02
2019-04-21T20:53:53.728Z,60.63
2019-04-21T20:59:04.503Z,61.08
2019-04-21T21:03:54.100Z,60.79
2019-04-21T21:08:55.209Z,61.66
2019-04-21T21:13:58.743Z,61.85
2019-04-21T21:19:23.424Z,62.04
2019-04-21T21:23:56.260Z,62.20
2019-04-21T21:28:52.037Z,62.68
2019-04-21T21:34:08.207Z,63.26
2019-04-21T21:38:59.539Z,62.96
2019-04-21T21:43:39.434Z,63.16
2019-04-21T21:48:44.955Z,63.73
2019-04-21T21:53:40.657Z,63.42
2019-04-21T21:58:41.610Z,63.22
2019-04-21T22:03:40.896Z,63.32
2019-04-21T22:08:36.498Z,63.89
2019-04-21T22:13:42.443Z,63.99
2019-04-21T22:18:58.263Z,65.81
2019-04-21T22:23:46.997Z,63.80
2019-04-21T22:28:31.668Z,64.28
2019-04-21T22:33:32.221Z,65.49
2019-04-21T22:38:40.834Z,65.20
2019-04-21T22:43:32.674Z,64.43
2019-04-21T22:48:28.985Z,64.53
2019-04-21T22:53:29.250Z,65.68
2019-04-21T22:58:29.314Z,66.54
2019-04-21T23:03:25.216Z,66.16
2019-04-21T23:08:27.931Z,65.36
2019-04-21T23:13:24.136Z,66.61
2019-04-21T23:18:37.632Z,66.51
2019-04-21T23:23:43.059Z,66.61
2019-04-21T23:28:43.783Z,64.69
2019-04-21T23:33:22.029Z,65.65
2019-04-21T23:38:27.830Z,66.13
2019-04-21T23:43:24.406Z,66.13
2019-04-21T23:48:30.133Z,65.45
2019-04-21T23:53:19.572Z,64.95
2019-04-21T23:58:22.252Z,66.57
